• Join FlightAware (Why Join?)
  • Login
  • US Flag 
05:53AM EDT


 

Airport Tracker/Info


-or-


 

Live Flight TrackerFlight Track Log ✈ EJA929 ✈ 01-Mar-2014 ✈ KPNE - KSDL

Flight Track Log - Related Links

Times and Time Zones

All times are in EST time to prevent confusion due to time zone crossing. See the EJA929 flight status page for this flight to view local times or setup timezone preferences in your user account.

Time Position Orientation Groundspeed Altitude Reporting Facility
EST Latitude Longitude Course Direction KTS MPH feet Rate Location/Type
09:03AM 40.0667 -75.0333 270° West 164 189 800  Level Philadelphia TRACON
09:04AM 40.0667 -75.0667 270° West 197 227 1,900 2,880 Climbing Philadelphia TRACON
09:05AM 40.0667 -75.1333 270° West 196 226 5,200 2,940 Climbing Philadelphia TRACON
09:06AM 40.0500 -75.2167 255° West 255 293 7,800 2,400 Climbing Philadelphia TRACON
09:07AM 40.0167 -75.3000 242° Southwest 270 311 10,000 780 Climbing Philadelphia TRACON
09:09AM 39.9678 -75.4828 251° West 352 405 10,000 180 Level New York Center
09:10AM 39.9344 -75.6111 251° West 349 402 10,600 1,200 Climbing New York Center
09:11AM 39.9164 -75.7331 259° West 352 405 12,500 1,860 Climbing New York Center
09:12AM 39.9142 -75.8619 269° West 353 406 14,500 2,040 Climbing New York Center
09:13AM 39.9111 -75.9972 268° West 354 407 16,800 1,680 Climbing New York Center
09:14AM 39.9089 -76.1317 269° West 354 407 18,000 1,260 Climbing New York Center
09:15AM 39.9097 -76.2456 271° West 366 421 19,500 2,040 Climbing New York Center
09:16AM 39.9169 -76.4058 273° West 369 425 22,200 2,220 Climbing New York Center
09:17AM 39.9228 -76.5439 273° West 376 433 24,100 1,800 Climbing New York Center
09:18AM 39.9278 -76.6794 273° West 381 438 26,000 1,800 Climbing New York Center
09:19AM 39.9333 -76.8219 273° West 390 449 27,900 1,800 Climbing New York Center
09:20AM 39.9386 -76.9653 273° West 394 453 29,800 1,920 Climbing New York Center
09:21AM 39.9442 -77.1092 273° West 396 456 31,900 1,980 Climbing New York Center
09:22AM 39.9481 -77.2514 272° West 396 456 33,900 1,860 Climbing New York Center
09:23AM 39.9547 -77.4250 273° West 397 457 35,800 1,620 Climbing New York Center
09:24AM 39.9589 -77.5689 272° West 398 458 37,300 1,500 Climbing New York Center
09:25AM 39.9631 -77.6839 273° West 399 459 38,600 1,200 Climbing Cleveland Center
09:26AM 39.9669 -77.8225 272° West 391 450 39,600 960 Climbing Cleveland Center
09:27AM 39.9703 -77.9647 272° West 384 442 40,600 960 Climbing Cleveland Center
09:28AM 39.9742 -78.0933 272° West 376 433 41,600 960 Climbing Cleveland Center
09:29AM 39.9778 -78.2253 272° West 370 426 42,600 660 Climbing Cleveland Center
09:30AM 39.9817 -78.3592 272° West 359 413 43,000 180 Climbing Cleveland Center
09:31AM 39.9847 -78.4906 272° West 359 413 43,000  Level Cleveland Center
09:32AM 39.9881 -78.6525 272° West 369 425 43,000  Level Cleveland Center
09:33AM 39.9925 -78.7894 272° West 374 430 43,000  Level Cleveland Center
09:34AM 39.9942 -78.9300 271° West 386 444 43,000  Level Cleveland Center
09:35AM 39.9981 -79.0567 272° West 388 447 43,000  Level Cleveland Center
09:36AM 40.0003 -79.2294 271° West 394 453 43,000  Level Cleveland Center
09:37AM 40.0031 -79.3711 272° West 392 451 43,000  Level Cleveland Center
09:38AM 40.0056 -79.5142 271° West 392 451 43,000  Level Cleveland Center
09:39AM 40.0067 -79.6606 271° West 393 452 43,000  Level Cleveland Center
09:40AM 40.0089 -79.8022 271° West 394 453 43,000  Level Cleveland Center
09:41AM 40.0106 -79.9481 271° West 394 453 43,000  Level Cleveland Center
09:42AM 40.0119 -80.0942 271° West 396 456 43,000  Level Cleveland Center
09:43AM 40.0133 -80.2403 271° West 397 457 43,000  Level Cleveland Center
09:44AM 40.0147 -80.3869 271° West 398 458 43,000  Level Cleveland Center
09:45AM 40.0147 -80.5333 270° West 398 458 43,000  Level Cleveland Center
09:46AM 40.0161 -80.6875 271° West 394 453 43,000  Level Cleveland Center
09:47AM 40.0172 -80.8189 271° West 394 453 43,000  Level Cleveland Center
09:48AM 40.0158 -80.9642 269° West 394 453 43,000  Level Cleveland Center
09:49AM 40.0136 -81.1075 269° West 394 453 43,000  Level Cleveland Center
09:50AM 40.0119 -81.1822 268° West 395 455 43,000  Level Indianapolis Center
09:51AM 40.0094 -81.3256 269° West 394 453 43,000  Level Indianapolis Center
09:52AM 40.0067 -81.4683 269° West 394 453 43,000  Level Indianapolis Center
09:53AM 40.0033 -81.6356 269° West 393 452 43,000  Level Indianapolis Center
09:54AM 40.0008 -81.7797 269° West 393 452 43,000  Level Indianapolis Center
09:55AM 39.9972 -81.9242 268° West 393 452 43,000  Level Indianapolis Center
09:56AM 39.9928 -82.0661 268° West 393 452 43,000  Level Indianapolis Center
09:57AM 39.9906 -82.2086 269° West 393 452 43,000  Level Indianapolis Center
09:58AM 39.9864 -82.3500 268° West 393 452 43,000  Level Indianapolis Center
09:59AM 39.9828 -82.4919 268° West 393 452 43,000  Level Indianapolis Center
10:00AM 39.9783 -82.6331 268° West 393 452 43,000  Level Indianapolis Center
10:01AM 39.9744 -82.7689 268° West 384 442 43,000  Level Indianapolis Center
10:02AM 39.9694 -82.9336 268° West 383 441 43,000  Level Indianapolis Center
10:03AM 39.9650 -83.0725 268° West 383 441 43,000  Level Indianapolis Center
10:04AM 39.9631 -83.2147 269° West 390 449 43,000  Level Indianapolis Center
10:05AM 39.9586 -83.3567 268° West 391 450 43,000  Level Indianapolis Center
10:06AM 39.9542 -83.4958 268° West 393 452 43,000  Level Indianapolis Center
10:07AM 39.9467 -83.6600 267° West 390 449 43,000  Level Indianapolis Center
10:08AM 39.9417 -83.7975 267° West 389 448 43,000  Level Indianapolis Center
10:09AM 39.9358 -83.9333 267° West 384 442 43,000  Level Indianapolis Center
10:10AM 39.9308 -84.0697 267° West 382 440 43,000  Level Indianapolis Center
10:11AM 39.9258 -84.2050 267° West 379 436 43,000  Level Indianapolis Center
10:13AM 39.9194 -84.3397 267° West 377 434 43,000  Level Indianapolis Center
10:14AM 39.9131 -84.4753 267° West 377 434 43,000  Level Indianapolis Center
10:15AM 39.9069 -84.6106 267° West 377 434 43,000  Level Indianapolis Center
10:16AM 39.8864 -84.7700 261° West 377 434 43,000  Level Indianapolis Center
10:17AM 39.8644 -84.9031 258° West 377 434 43,000  Level Indianapolis Center
10:18AM 39.8408 -85.0500 258° West 381 438 43,000  Level Indianapolis Center
10:19AM 39.8206 -85.1847 259° West 381 438 43,000  Level Indianapolis Center
10:20AM 39.7992 -85.3192 258° West 381 438 43,000  Level Indianapolis Center
10:21AM 39.7778 -85.4544 258° West 381 438 43,000  Level Indianapolis Center
10:22AM 39.7567 -85.5881 258° West 381 438 43,000  Level Indianapolis Center
10:23AM 39.7353 -85.7217 258° West 381 438 43,000  Level Indianapolis Center
10:24AM 39.7139 -85.8556 258° West 380 437 43,000  Level Indianapolis Center
10:25AM 39.6917 -85.9892 258° West 380 437 43,000  Level Indianapolis Center
10:26AM 39.6694 -86.1225 258° West 380 437 43,000  Level Indianapolis Center
10:27AM 39.6439 -86.2817 258° West 380 437 43,000  Level Indianapolis Center
10:28AM 39.6242 -86.3925 257° West 377 434 43,000  Level Indianapolis Center
10:29AM 39.6028 -86.5233 258° West 375 432 43,000  Level Indianapolis Center
10:30AM 39.5806 -86.6533 258° West 371 427 43,000  Level Indianapolis Center
10:31AM 39.5539 -86.8075 257° West 370 426 43,000  Level Indianapolis Center
10:32AM 39.5331 -86.9347 258° West 368 423 43,000  Level Indianapolis Center
10:33AM 39.5106 -87.0625 257° West 367 422 43,000  Level Indianapolis Center
10:34AM 39.4886 -87.1900 257° West 366 421 43,000  Level Indianapolis Center
10:35AM 39.4661 -87.3167 257° West 366 421 43,000  Level Indianapolis Center
10:36AM 39.4433 -87.4431 257° West 364 419 43,000  Level Indianapolis Center
10:37AM 39.4211 -87.5686 257° West 363 418 43,000  Level Indianapolis Center
10:38AM 39.3981 -87.6942 257° West 363 418 43,000  Level Indianapolis Center
10:39AM 39.3756 -87.8192 257° West 362 417 43,000  Level Indianapolis Center
10:40AM 39.3492 -87.9642 257° West 362 417 43,000  Level Indianapolis Center
10:41AM 39.3264 -88.0889 257° West 361 415 43,000  Level Indianapolis Center
10:42AM 39.3036 -88.2142 257° West 361 415 43,000  Level Indianapolis Center
10:43AM 39.2819 -88.3394 257° West 360 414 43,000  Level Indianapolis Center
10:44AM 39.2611 -88.4667 258° West 360 414 43,000  Level Indianapolis Center
10:45AM 39.2542 -88.5944 266° West 359 413 43,000  Level Indianapolis Center
10:46AM 39.2453 -88.7228 265° West 359 413 43,000  Level Indianapolis Center
10:47AM 39.2364 -88.8508 265° West 359 413 43,000  Level Indianapolis Center
10:48AM 39.2250 -88.9794 264° West 359 413 43,000  Level Indianapolis Center
10:49AM 39.2147 -89.1336 265° West 359 413 43,000  Level Indianapolis Center
10:50AM 39.2044 -89.2636 264° West 360 414 43,000  Level Indianapolis Center
10:51AM 39.1942 -89.3922 264° West 360 414 43,000  Level Indianapolis Center
10:53AM 39.1800 -89.5597 264° West 362 417 43,000  Level Kansas City Center
10:54AM 39.1700 -89.6881 264° West 362 417 43,000  Level Kansas City Center
10:55AM 39.1594 -89.8192 264° West 365 420 43,000  Level Kansas City Center
10:56AM 39.1486 -89.9481 264° West 365 420 43,000  Level Kansas City Center
10:57AM 39.1350 -90.1033 264° West 365 420 43,000  Level Kansas City Center
10:58AM 39.1242 -90.2328 264° West 365 420 43,000  Level Kansas City Center
10:59AM 39.1131 -90.3619 264° West 365 420 43,000  Level Kansas City Center
11:00AM 39.1014 -90.4911 263° West 366 421 43,000  Level Kansas City Center
11:01AM 39.0894 -90.6200 263° West 366 421 43,000  Level Kansas City Center
11:02AM 39.0778 -90.7469 263° West 365 420 43,000  Level Kansas City Center
11:03AM 39.0661 -90.8769 263° West 365 420 43,000  Level Kansas City Center
11:04AM 39.0514 -91.0325 263° West 366 421 43,000  Level Kansas City Center
11:05AM 39.0392 -91.1642 263° West 369 425 43,000  Level Kansas City Center
11:06AM 39.0267 -91.2958 263° West 370 426 43,000  Level Kansas City Center
11:07AM 39.0139 -91.4300 263° West 373 429 43,000  Level Kansas City Center
11:08AM 39.0011 -91.5644 263° West 379 436 43,000  Level Kansas City Center
11:09AM 38.9853 -91.7208 263° West 384 442 43,000  Level Kansas City Center
11:10AM 38.9725 -91.8531 263° West 380 437 43,000  Level Kansas City Center
11:11AM 38.9581 -91.9806 262° West 367 422 43,000  Level Kansas City Center
11:12AM 38.9447 -92.1111 263° West 366 421 43,000  Level Kansas City Center
11:13AM 38.9306 -92.2433 262° West 368 423 43,000  Level Kansas City Center
11:14AM 38.9167 -92.3750 262° West 369 425 43,000  Level Kansas City Center
11:15AM 38.9025 -92.5047 262° West 369 425 43,000  Level Kansas City Center
11:16AM 38.8881 -92.6364 262° West 369 425 43,000  Level Kansas City Center
11:17AM 38.8711 -92.7931 262° West 369 425 43,000  Level Kansas City Center
11:18AM 38.8556 -92.9233 261° West 369 425 43,000  Level Kansas City Center
11:19AM 38.8414 -93.0575 262° West 373 429 43,000  Level Kansas City Center
11:20AM 38.8272 -93.1869 262° West 373 429 43,000  Level Kansas City Center
11:21AM 38.8122 -93.3175 262° West 373 429 43,000  Level Kansas City Center
11:22AM 38.7975 -93.4486 262° West 373 429 43,000  Level Kansas City Center
11:23AM 38.7817 -93.5808 261° West 373 429 43,000  Level Kansas City Center
11:24AM 38.7658 -93.7131 261° West 373 429 43,000  Level Kansas City Center
11:26AM 38.7483 -93.8664 262° West 372 428 43,000  Level Kansas City Center
11:27AM 38.7333 -93.9917 261° West 372 428 43,000  Level Kansas City Center
11:28AM 38.7175 -94.1167 261° West 372 428 43,000  Level Kansas City Center
11:29AM 38.7003 -94.2633 261° West 372 428 43,000  Level Kansas City Center
11:30AM 38.6844 -94.3883 261° West 372 428 43,000  Level Kansas City Center
11:31AM 38.6661 -94.5350 261° West 372 428 43,000  Level Kansas City Center
11:32AM 38.6503 -94.6608 261° West 372 428 43,000  Level Kansas City Center
11:33AM 38.6342 -94.7858 261° West 372 428 43,000  Level Kansas City Center
11:34AM 38.6153 -94.9336 261° West 373 429 43,000  Level Kansas City Center
11:35AM 38.5997 -95.0581 261° West 372 428 43,000  Level Kansas City Center
11:36AM 38.5797 -95.2042 260° West 372 428 43,000  Level Kansas City Center
11:37AM 38.5633 -95.3306 261° West 374 430 43,000  Level Kansas City Center
11:38AM 38.5447 -95.4778 261° West 374 430 43,000  Level Kansas City Center
11:39AM 38.5272 -95.6053 260° West 377 434 43,000  Level Kansas City Center
11:40AM 38.5100 -95.7297 260° West 376 433 43,000  Level Kansas City Center
11:41AM 38.4903 -95.8761 260° West 374 430 43,000  Level Kansas City Center
11:42AM 38.4742 -96.0019 261° West 374 430 43,000  Level Kansas City Center
11:43AM 38.4528 -96.1486 259° West 375 432 43,000  Level Kansas City Center
11:44AM 38.4356 -96.2725 260° West 374 430 43,000  Level Kansas City Center
11:45AM 38.4153 -96.4192 260° West 374 430 43,000  Level Kansas City Center
11:46AM 38.3967 -96.5442 259° West 377 434 43,000  Level Kansas City Center
11:47AM 38.3781 -96.6750 260° West 377 434 43,000  Level Kansas City Center
11:48AM 38.3592 -96.8047 260° West 377 434 43,000  Level Kansas City Center
11:49AM 38.3397 -96.9347 259° West 376 433 43,000  Level Kansas City Center
11:50AM 38.3208 -97.0650 260° West 376 433 43,000  Level Kansas City Center
11:51AM 38.2981 -97.2194 259° West 375 432 43,000  Level Kansas City Center
11:52AM 38.2792 -97.3483 259° West 375 432 43,000  Level Kansas City Center
11:53AM 38.2594 -97.4761 259° West 374 430 43,000  Level Kansas City Center
11:54AM 38.2400 -97.6039 259° West 373 429 43,000  Level Kansas City Center
11:55AM 38.2200 -97.7314 259° West 372 428 43,000  Level Kansas City Center
11:56AM 38.2003 -97.8589 259° West 372 428 43,000  Level Kansas City Center
11:57AM 38.1772 -98.0122 259° West 372 428 43,000  Level Kansas City Center
11:58AM 38.1558 -98.1389 258° West 372 428 43,000  Level Kansas City Center
11:59AM 38.1361 -98.2675 259° West 373 429 43,000  Level Kansas City Center
12:01PM 38.1158 -98.3953 259° West 373 429 43,000  Level Kansas City Center
12:02PM 38.0953 -98.5247 259° West 373 429 43,000  Level Kansas City Center
12:03PM 38.0689 -98.6797 258° West 374 430 43,000  Level Kansas City Center
12:04PM 38.0483 -98.8094 259° West 374 430 43,000  Level Kansas City Center
12:05PM 38.0272 -98.9392 258° West 375 432 43,000  Level Kansas City Center
12:06PM 38.0056 -99.0706 258° West 378 435 43,000  Level Kansas City Center
12:07PM 37.9836 -99.2025 258° West 379 436 43,000  Level Kansas City Center
12:08PM 37.9611 -99.3339 258° West 380 437 43,000  Level Kansas City Center
12:09PM 37.9383 -99.4664 258° West 382 440 43,000  Level Kansas City Center
12:10PM 37.9136 -99.6144 258° West 379 436 43,000  Level Kansas City Center
12:11PM 37.8875 -99.7611 257° West 380 437 43,000  Level Kansas City Center
12:12PM 37.8672 -99.8828 258° West 377 434 43,000  Level Kansas City Center
12:13PM 37.8453 -100.0042 257° West 373 429 43,000  Level Kansas City Center
12:14PM 37.8211 -100.1444 258° West 369 425 43,000  Level Kansas City Center
12:15PM 37.7989 -100.2633 257° West 367 422 43,000  Level Kansas City Center
12:16PM 37.7744 -100.4000 257° West 362 417 43,000  Level Kansas City Center
12:17PM 37.7550 -100.5083 257° West 359 413 43,000  Level Kansas City Center
12:18PM 37.7331 -100.6342 258° West 362 417 43,000  Level Kansas City Center
12:19PM 37.7058 -100.7867 257° West 366 421 43,000  Level Kansas City Center
12:20PM 37.6825 -100.9139 257° West 367 422 43,000  Level Kansas City Center
12:21PM 37.6553 -101.0497 256° West 385 443 43,000  Level Kansas City Center
12:22PM 37.6303 -101.1867 257° West 384 442 43,000  Level Kansas City Center
12:23PM 37.6075 -101.3089 257° West 377 434 43,000  Level Kansas City Center
12:24PM 37.5806 -101.4514 257° West 377 434 43,000  Level Kansas City Center
12:25PM 37.5583 -101.5742 257° West 376 433 43,000  Level Kansas City Center
12:26PM 37.5347 -101.6972 256° West 377 434 43,000  Level Kansas City Center
12:27PM 37.5069 -101.8397 256° West 376 433 43,000  Level Kansas City Center
12:28PM 37.4836 -101.9611 256° West 376 433 43,000  Level Kansas City Center
12:29PM 37.4558 -102.1033 256° West 374 430 43,000  Level Kansas City Center
12:30PM 37.4325 -102.2233 256° West 374 430 43,000  Level Kansas City Center
12:31PM 37.4047 -102.3664 256° West 374 430 43,000  Level Kansas City Center
12:32PM 37.3803 -102.4853 256° West 373 429 43,000  Level Kansas City Center
12:33PM 37.3561 -102.6078 256° West 373 429 43,000  Level Kansas City Center
12:34PM 37.3275 -102.7500 256° West 373 429 43,000  Level Kansas City Center
12:35PM 37.3161 -102.8117 257° West 374 430 43,000  Level Albuquerque Center
12:36PM 37.2914 -102.9356 256° West 378 435 43,000  Level Albuquerque Center
12:38PM 37.2383 -103.2011 256° West 376 433 43,000  Level Albuquerque Center
12:39PM 37.2083 -103.3456 255° West 381 438 43,000  Level Albuquerque Center
12:40PM 37.1828 -103.4678 255° West 378 435 43,000  Level Albuquerque Center
12:41PM 37.1522 -103.6114 255° West 380 437 43,000  Level Denver Center
12:42PM 37.1267 -103.7356 256° West 380 437 43,000  Level Denver Center
12:43PM 37.1006 -103.8581 255° West 378 435 43,000  Level Albuquerque Center
12:44PM 37.0708 -104.0006 255° West 376 433 43,000  Level Albuquerque Center
12:45PM 37.0436 -104.1247 255° West 381 438 43,000  Level Albuquerque Center
12:46PM 37.0128 -104.2703 255° West 385 443 43,000  Level Albuquerque Center
12:47PM 36.9806 -104.4189 255° West 393 452 43,000  Level Denver Center
12:48PM 36.9536 -104.5439 255° West 392 451 43,000  Level Denver Center
12:49PM 36.9275 -104.6558 254° West 383 441 43,000  Level Albuquerque Center
12:50PM 36.8989 -104.7858 255° West 385 443 43,000  Level Albuquerque Center
12:51PM 36.8683 -104.9314 255° West 383 441 43,000  Level Albuquerque Center
12:52PM 36.8406 -105.0536 254° West 382 440 43,000  Level Albuquerque Center
12:53PM 36.8133 -105.1767 255° West 383 441 43,000  Level Albuquerque Center
12:54PM 36.7803 -105.3256 255° West 394 453 43,000  Level Albuquerque Center
12:55PM 36.7517 -105.4508 254° West 395 455 43,000  Level Albuquerque Center
12:57PM 36.7200 -105.5861 254° West 395 455 43,000 -60 Level Albuquerque Center
12:58PM 36.6897 -105.7172 254° West 394 453 42,900  Descending Albuquerque Center
12:59PM 36.6597 -105.8475 254° West 395 455 43,000  Climbing Albuquerque Center
01:00PM 36.6294 -105.9756 254° West 390 449 43,000  Level Albuquerque Center
01:01PM 36.5950 -106.1303 255° West 388 447 43,000  Level Albuquerque Center
01:01PM 36.5828 -106.1797 253° West 385 443 43,000  Level Albuquerque Center
01:02PM 36.5525 -106.3061 253° West 382 440 43,000  Level Albuquerque Center
01:03PM 36.5231 -106.4322 254° West 382 440 43,000  Level Albuquerque Center
01:04PM 36.4939 -106.5581 254° West 380 437 43,000  Level Albuquerque Center
01:05PM 36.4589 -106.6994 253° West 382 440 43,000  Level Denver Center
01:06PM 36.4297 -106.8222 254° West 383 441 43,000  Level Denver Center
01:07PM 36.3953 -106.9658 253° West 385 443 43,000  Level Denver Center
01:08PM 36.3669 -107.0878 254° West 385 443 43,000  Level Denver Center
01:09PM 36.3311 -107.2281 252° West 385 443 43,000  Level Denver Center
01:10PM 36.3031 -107.3500 254° West 384 442 43,000  Level Denver Center
01:11PM 36.2669 -107.4914 252° West 384 442 43,000  Level Denver Center
01:12PM 36.2372 -107.6136 253° West 384 442 43,000  Level Denver Center
01:13PM 36.2069 -107.7367 253° West 387 445 43,000  Level Albuquerque Center
01:14PM 36.1717 -107.8789 253° West 387 445 43,000  Level Albuquerque Center
01:15PM 36.1403 -108.0014 252° West 389 448 43,000  Level Albuquerque Center
01:17PM 36.1047 -108.1436 253° West 388 447 43,000  Level Albuquerque Center
01:18PM 36.0739 -108.2653 253° West 388 447 43,000  Level Albuquerque Center
01:19PM 36.0425 -108.3875 252° West 388 447 43,000  Level Albuquerque Center
01:20PM 36.0064 -108.5294 253° West 389 448 43,000  Level Albuquerque Center
01:21PM 35.9736 -108.6561 252° West 389 448 43,000  Level Albuquerque Center
01:22PM 35.9414 -108.7825 253° West 388 447 43,000  Level Albuquerque Center
01:23PM 35.9058 -108.9114 251° West 396 456 43,000  Level Albuquerque Center
01:24PM 35.8706 -109.0497 253° West 400 460 43,000  Level Albuquerque Center
01:25PM 35.8314 -109.1986 252° West 406 467 43,000  Level Albuquerque Center
01:26PM 35.7978 -109.3242 252° West 405 466 43,000  Level Albuquerque Center
01:27PM 35.7586 -109.4728 252° West 406 467 43,000  Level Albuquerque Center
01:28PM 35.7236 -109.5992 251° West 406 467 43,000  Level Albuquerque Center
01:29PM 35.6892 -109.7250 251° West 406 467 43,000  Level Albuquerque Center
01:30PM 35.6508 -109.8736 252° West 408 470 43,000  Level Albuquerque Center
01:31PM 35.6156 -110.0006 251° West 408 470 43,000  Level Albuquerque Center
01:32PM 35.5722 -110.1492 250° West 412 474 43,000  Level Albuquerque Center
01:33PM 35.5375 -110.2761 251° West 411 473 43,000  Level Albuquerque Center
01:34PM 35.4972 -110.4272 252° West 416 479 43,000  Level Albuquerque Center
01:35PM 35.4589 -110.5581 250° West 421 484 43,000  Level Albuquerque Center
01:36PM 35.4233 -110.6864 251° West 418 481 43,000  Level Albuquerque Center
01:37PM 35.3817 -110.8369 251° West 418 481 43,000 -780 Level Albuquerque Center
01:38PM 35.3475 -110.9636 252° West 412 474 41,500 -1,920 Descending Albuquerque Center
01:39PM 35.3133 -111.0972 253° West 406 467 39,100 -2,460 Descending Albuquerque Center
01:40PM 35.2769 -111.2242 251° West 403 464 36,500 -2,940 Descending Albuquerque Center
01:41PM 35.2422 -111.3456 251° West 394 453 33,100 -2,220 Descending Albuquerque Center
01:42PM 35.2047 -111.4722 250° West 393 452 32,000 -1,560 Descending Albuquerque Center
01:43PM 35.1583 -111.6247 250° West 397 457 30,000 -1,500 Descending Albuquerque Center
01:44PM 35.0714 -111.7017 216° Southwest 398 458 29,000 -1,200 Descending Albuquerque Center
01:45PM 34.9608 -111.7300 192° South 400 460 27,600 -1,020 Descending Albuquerque Center
01:46PM 34.8517 -111.7592 192° South 401 461 26,900 -1,080 Descending Albuquerque Center
01:47PM 34.7458 -111.7883 193° South 399 459 25,400 -1,800 Descending Albuquerque Center
01:48PM 34.6422 -111.8158 192° South 389 448 23,300 -2,340 Descending Albuquerque Center
01:49PM 34.5147 -111.8528 193° South 391 450 20,600 -2,520 Descending Albuquerque Center
01:50PM 34.4108 -111.8825 193° South 390 449 18,100 -2,460 Descending Albuquerque Center
01:51PM 34.3178 -111.9092 193° South 360 414 15,600 -2,460 Descending Albuquerque Center
01:53PM 34.2283 -111.9197 186° South 335 386 13,100 -1,800 Descending Albuquerque Center
01:54PM 34.1425 -111.9242 182° South 314 361 11,900 -1,380 Descending Albuquerque Center
01:55PM 34.0667 -111.9281 182° South 279 321 10,300 -1,740 Descending Albuquerque Center
01:56PM 33.9789 -111.9336 183° South 268 308 8,400 -1,560 Descending Albuquerque Center
01:57PM 33.9069 -111.9492 190° South 267 307 7,100 -1,020 Descending Albuquerque Center
01:58PM 33.8411 -111.9628 190° South 243 280 6,300 -600 Descending Albuquerque Center
01:59PM 33.7822 -111.9756 190° South 218 251 5,900 -240 Descending Albuquerque Center
02:00PM 33.7253 -111.9872 190° South 212 244 5,900  Level Albuquerque Center
02:01PM 33.6639 -112.0306 210° Southwest 216 249 5,900  Level Albuquerque Center
02:02PM 33.6061 -112.0431 190° South 219 252 6,000 -60 Climbing Albuquerque Center
02:03PM 33.5489 -112.0411 178° South 205 236 5,800 -540 Descending Albuquerque Center
02:04PM 33.5033 -112.0364 175° South 169 194 4,900 -480 Descending Albuquerque Center
02:05PM 33.4661 -112.0086 148° Southeast 183 211 4,900  Level Albuquerque Center
02:06PM 33.4733 -111.9581 80° East 173 199 5,000 -540 Climbing Albuquerque Center
02:07PM 33.5178 -111.9400 19° North 173 199 3,800 -1,140 Descending Albuquerque Center
02:08PM 33.5731 -111.9281 10° North 169 194 2,700 -780 Descending Albuquerque Center
02:09PM 33.6050 -111.9011 35° Northeast 161 185 2,300 -180 Descending Albuquerque Center
02:10PM 33.6233 -111.8628 60° Northeast 149 171 2,400 -360 Climbing Albuquerque Center
02:11PM 33.6344 -111.8983 291° West 166 191 1,600 -540 Descending Albuquerque Center
02:12PM 33.6056 -111.9197 212° Southwest 157 181 1,400 -240 Descending Albuquerque Center